createdAt,value
2022-08-09T00:00:06.596Z,32.42
2022-08-09T00:02:34.999Z,32.48
2022-08-09T00:06:16.323Z,32.72
2022-08-09T00:07:48.346Z,32.70
2022-08-09T00:10:17.910Z,32.92
2022-08-09T00:12:47.562Z,33.27
2022-08-09T00:15:18.995Z,33.05
2022-08-09T00:18:07.512Z,32.97
2022-08-09T00:20:32.550Z,33.39
2022-08-09T00:23:08.283Z,33.45
2022-08-09T00:25:51.746Z,33.23
2022-08-09T00:28:18.534Z,33.37
2022-08-09T00:30:45.300Z,33.56
2022-08-09T00:33:12.381Z,34.03
2022-08-09T00:35:43.289Z,33.77
2022-08-09T00:38:10.571Z,33.52
2022-08-09T00:40:37.205Z,33.66
2022-08-09T00:44:14.816Z,33.51
2022-08-09T00:45:54.239Z,33.82
2022-08-09T00:48:20.914Z,33.49
2022-08-09T00:50:52.079Z,33.57
2022-08-09T00:53:24.095Z,33.59
2022-08-09T00:56:04.941Z,33.96
2022-08-09T00:58:36.160Z,34.05
2022-08-09T01:01:03.360Z,34.10
2022-08-09T01:03:30.062Z,34.18
2022-08-09T01:05:59.584Z,34.16
2022-08-09T01:08:48.910Z,34.53
2022-08-09T01:11:16.313Z,34.49
2022-08-09T01:13:58.547Z,34.32
2022-08-09T01:16:26.612Z,34.35
2022-08-09T01:19:01.887Z,34.66
2022-08-09T01:21:41.299Z,34.37
2022-08-09T01:24:11.547Z,34.41
2022-08-09T01:26:39.023Z,35.37
2022-08-09T01:29:05.569Z,35.25
2022-08-09T01:32:44.011Z,35.36
2022-08-09T01:34:18.938Z,35.24
2022-08-09T01:36:50.272Z,36.19
2022-08-09T01:39:16.874Z,36.65
2022-08-09T01:41:53.395Z,37.83
2022-08-09T01:44:22.687Z,39.10
2022-08-09T01:46:50.230Z,38.49
2022-08-09T01:49:21.125Z,39.02
2022-08-09T01:51:53.515Z,38.75
2022-08-09T01:54:20.609Z,38.93
2022-08-09T01:56:51.613Z,39.28
2022-08-09T01:59:18.631Z,38.76
2022-08-09T02:02:00.184Z,37.51
2022-08-09T02:04:27.501Z,38.02
2022-08-09T02:06:58.623Z,38.27
2022-08-09T02:09:25.989Z,38.13
2022-08-09T02:12:09.034Z,39.04
2022-08-09T02:14:35.680Z,39.11
2022-08-09T02:17:29.634Z,39.96
2022-08-09T02:19:52.489Z,39.45
2022-08-09T02:22:27.280Z,39.91
2022-08-09T02:24:58.439Z,40.28
2022-08-09T02:27:27.487Z,39.80
2022-08-09T02:30:10.460Z,39.02
2022-08-09T02:32:38.034Z,39.31
2022-08-09T02:35:17.143Z,38.90
2022-08-09T02:37:45.258Z,38.68
2022-08-09T02:40:12.077Z,38.61
2022-08-09T02:42:38.542Z,38.38
2022-08-09T02:45:06.829Z,39.04
2022-08-09T02:47:57.463Z,39.58
2022-08-09T02:50:21.707Z,38.49
2022-08-09T02:52:55.183Z,38.54
2022-08-09T02:55:23.163Z,40.19
2022-08-09T02:58:35.987Z,40.73
2022-08-09T03:00:58.155Z,39.95
2022-08-09T03:04:12.327Z,39.99
2022-08-09T03:06:12.365Z,38.54
2022-08-09T03:08:39.518Z,38.85
2022-08-09T03:11:10.401Z,39.21
2022-08-09T03:13:43.642Z,39.21
2022-08-09T03:16:23.891Z,39.50
2022-08-09T03:18:50.666Z,41.11
2022-08-09T03:21:19.915Z,39.79
2022-08-09T03:24:03.886Z,39.19
2022-08-09T03:26:31.994Z,38.96
2022-08-09T03:28:59.001Z,38.05
2022-08-09T03:31:26.087Z,37.47
2022-08-09T03:33:54.002Z,37.21
2022-08-09T03:36:27.462Z,37.25
2022-08-09T03:38:54.566Z,37.69
2022-08-09T03:41:29.903Z,37.82
2022-08-09T03:44:09.448Z,38.19
2022-08-09T03:46:39.115Z,38.26
2022-08-09T03:49:08.757Z,37.66
2022-08-09T03:51:43.692Z,37.38
2022-08-09T03:54:29.615Z,37.81
2022-08-09T03:56:59.165Z,38.73
2022-08-09T03:59:27.350Z,39.08
2022-08-09T04:01:54.286Z,40.15
2022-08-09T04:04:21.887Z,38.63
2022-08-09T04:06:51.246Z,38.61
2022-08-09T04:09:41.872Z,37.96
2022-08-09T04:12:07.168Z,38.36
2022-08-09T04:14:53.538Z,38.61
2022-08-09T04:17:29.376Z,38.75
2022-08-09T04:19:56.511Z,38.53
2022-08-09T04:22:23.181Z,38.25
2022-08-09T04:24:51.069Z,38.25
2022-08-09T04:27:22.014Z,38.27
2022-08-09T04:29:49.880Z,38.34
2022-08-09T04:32:16.860Z,38.13
2022-08-09T04:34:54.270Z,38.11
2022-08-09T04:37:24.173Z,38.33
2022-08-09T04:40:10.724Z,38.05
2022-08-09T04:42:37.942Z,38.53
2022-08-09T04:45:04.531Z,38.54
2022-08-09T04:47:45.236Z,38.39
2022-08-09T04:50:20.674Z,38.63
2022-08-09T04:52:58.371Z,38.10
2022-08-09T04:55:26.682Z,38.61
2022-08-09T04:58:01.766Z,39.06
2022-08-09T05:00:36.088Z,38.66
2022-08-09T05:03:12.938Z,38.71
2022-08-09T05:05:52.013Z,38.47
2022-08-09T05:08:30.877Z,39.35
2022-08-09T05:10:57.667Z,38.65
2022-08-09T05:13:32.886Z,38.99
2022-08-09T05:16:00.319Z,38.57
2022-08-09T05:18:38.909Z,38.62
2022-08-09T05:21:23.037Z,38.66
2022-08-09T05:23:59.911Z,37.93
2022-08-09T05:26:37.032Z,37.89
2022-08-09T05:29:17.473Z,37.28
2022-08-09T05:31:56.201Z,36.96
2022-08-09T05:34:29.832Z,36.82
2022-08-09T05:36:58.015Z,36.76
2022-08-09T05:39:28.919Z,36.67
2022-08-09T05:41:56.147Z,36.84
2022-08-09T05:44:32.792Z,36.47
2022-08-09T05:46:59.661Z,36.03
2022-08-09T05:50:24.378Z,35.98
2022-08-09T05:52:13.162Z,36.04
2022-08-09T05:54:40.262Z,34.95
2022-08-09T05:57:07.399Z,34.40
2022-08-09T05:59:39.468Z,34.30
2022-08-09T06:02:08.491Z,34.16
2022-08-09T06:04:36.648Z,34.52
2022-08-09T06:07:03.218Z,34.28
2022-08-09T06:09:54.841Z,34.09
2022-08-09T06:12:16.538Z,33.87
2022-08-09T06:14:43.932Z,33.16
2022-08-09T06:17:12.242Z,33.95
2022-08-09T06:19:40.213Z,33.96
2022-08-09T06:22:15.343Z,34.49
2022-08-09T06:24:42.071Z,34.81
2022-08-09T06:27:08.611Z,35.36
2022-08-09T06:29:48.306Z,35.05
2022-08-09T06:32:53.233Z,35.98
2022-08-09T06:35:09.223Z,35.45
2022-08-09T06:37:53.363Z,35.13
2022-08-09T06:40:24.429Z,35.54
2022-08-09T06:42:51.426Z,35.82
2022-08-09T06:46:06.627Z,36.13
2022-08-09T06:48:04.650Z,36.28
2022-08-09T06:50:34.075Z,35.45
2022-08-09T06:53:02.224Z,35.50
2022-08-09T06:55:28.982Z,35.34
2022-08-09T06:58:02.083Z,36.17
2022-08-09T07:00:52.509Z,35.86
2022-08-09T07:03:17.398Z,35.33
2022-08-09T07:06:02.261Z,35.59
2022-08-09T07:08:30.668Z,35.21
2022-08-09T07:10:57.313Z,35.54
2022-08-09T07:13:28.146Z,35.66
2022-08-09T07:16:41.008Z,35.43
2022-08-09T07:18:43.232Z,35.49
2022-08-09T07:21:10.362Z,35.63
2022-08-09T07:23:46.668Z,35.46
2022-08-09T07:26:24.265Z,34.68
2022-08-09T07:29:09.162Z,34.50
2022-08-09T07:31:45.502Z,34.86
2022-08-09T07:34:19.395Z,34.54
2022-08-09T07:36:48.129Z,35.30
2022-08-09T07:39:20.116Z,34.76
2022-08-09T07:42:05.014Z,35.50
2022-08-09T07:44:51.146Z,34.73
2022-08-09T07:47:18.372Z,35.26
2022-08-09T07:50:04.906Z,35.13
2022-08-09T07:52:35.612Z,35.72
2022-08-09T07:55:08.597Z,35.97
2022-08-09T07:57:36.331Z,36.41
2022-08-09T08:00:08.661Z,37.09
2022-08-09T08:02:36.099Z,36.83
2022-08-09T08:05:17.928Z,36.54
2022-08-09T08:08:43.798Z,35.83
2022-08-09T08:10:34.777Z,37.37
2022-08-09T08:13:03.604Z,36.88
2022-08-09T08:15:30.683Z,37.25
2022-08-09T08:18:02.192Z,37.25
2022-08-09T08:20:32.861Z,36.75
2022-08-09T08:23:03.665Z,36.78
2022-08-09T08:25:39.909Z,37.03
2022-08-09T08:28:14.275Z,36.68
2022-08-09T08:30:41.487Z,36.35
2022-08-09T08:33:12.030Z,36.80
2022-08-09T08:35:59.458Z,37.33
2022-08-09T08:38:25.560Z,37.35
2022-08-09T08:41:13.693Z,37.62
2022-08-09T08:43:41.918Z,37.37
2022-08-09T08:46:32.687Z,36.66
2022-08-09T08:48:55.767Z,37.53
2022-08-09T08:51:25.237Z,37.19
2022-08-09T08:54:03.409Z,37.15
2022-08-09T08:56:32.010Z,36.97
2022-08-09T08:58:59.755Z,36.82
2022-08-09T09:01:44.736Z,37.16
2022-08-09T09:04:12.811Z,36.83
2022-08-09T09:06:39.898Z,36.29
2022-08-09T09:09:21.006Z,35.99
2022-08-09T09:11:53.567Z,35.61
2022-08-09T09:14:20.112Z,36.26
2022-08-09T09:16:49.421Z,36.90
2022-08-09T09:19:37.076Z,37.64
2022-08-09T09:22:04.240Z,36.66
2022-08-09T09:24:32.669Z,36.78
2022-08-09T09:27:01.235Z,36.10
2022-08-09T09:29:36.782Z,36.48
2022-08-09T09:32:15.400Z,36.25
2022-08-09T09:34:44.730Z,35.83
2022-08-09T09:37:13.158Z,36.05
2022-08-09T09:39:54.876Z,35.87
2022-08-09T09:42:24.278Z,35.76
2022-08-09T09:44:51.514Z,36.22
2022-08-09T09:47:21.615Z,35.49
2022-08-09T09:50:07.195Z,35.04
2022-08-09T09:52:54.012Z,34.91
2022-08-09T09:55:31.249Z,35.07
2022-08-09T09:58:18.776Z,35.10
2022-08-09T10:00:50.303Z,35.03
2022-08-09T10:03:22.274Z,35.46
2022-08-09T10:06:03.553Z,35.71
2022-08-09T10:08:31.363Z,35.38
2022-08-09T10:11:06.911Z,36.00
2022-08-09T10:13:50.343Z,35.79
2022-08-09T10:16:56.998Z,35.81
2022-08-09T10:19:04.238Z,35.13
2022-08-09T10:21:30.840Z,35.59
2022-08-09T10:23:59.482Z,35.41
2022-08-09T10:26:26.842Z,35.21
2022-08-09T10:29:31.358Z,34.64
2022-08-09T10:34:33.838Z,34.18
2022-08-09T10:37:03.070Z,34.93
2022-08-09T10:39:30.174Z,34.80
2022-08-09T10:42:07.610Z,34.72
2022-08-09T10:44:36.646Z,34.33
2022-08-09T10:47:20.534Z,34.26
2022-08-09T10:49:54.355Z,34.36
2022-08-09T10:52:21.147Z,33.84
2022-08-09T10:54:47.709Z,33.84
2022-08-09T10:57:17.037Z,33.92
2022-08-09T10:59:57.401Z,34.50
2022-08-09T11:03:11.507Z,33.97
2022-08-09T11:05:11.543Z,33.69
2022-08-09T11:07:58.456Z,33.64
2022-08-09T11:10:29.324Z,33.27
2022-08-09T11:12:57.466Z,33.33
2022-08-09T11:15:24.366Z,33.65
2022-08-09T11:18:03.859Z,32.30
2022-08-09T11:20:30.869Z,32.51
2022-08-09T11:22:59.980Z,32.64
2022-08-09T11:25:44.667Z,33.03
2022-08-09T11:28:30.402Z,33.30
2022-08-09T11:30:59.480Z,33.15
2022-08-09T11:33:26.919Z,33.13
2022-08-09T11:35:53.551Z,31.94
2022-08-09T11:38:22.150Z,32.21
2022-08-09T11:40:49.368Z,31.91
2022-08-09T11:43:19.679Z,31.84
2022-08-09T11:45:48.470Z,32.40
2022-08-09T11:48:25.276Z,32.29
2022-08-09T11:52:49.293Z,32.51
2022-08-09T11:53:58.094Z,32.34
2022-08-09T11:56:34.415Z,32.42
2022-08-09T11:59:09.610Z,31.84
2022-08-09T12:02:34.456Z,32.47
2022-08-09T12:04:32.280Z,32.15
2022-08-09T12:07:04.125Z,31.63
2022-08-09T12:09:37.332Z,31.90
2022-08-09T12:12:04.276Z,31.83
2022-08-09T12:14:36.889Z,31.24
2022-08-09T12:17:27.563Z,31.12
2022-08-09T12:19:59.457Z,30.56
2022-08-09T12:22:26.527Z,30.25
2022-08-09T12:24:53.068Z,30.54
2022-08-09T12:28:59.482Z,30.20
2022-08-09T12:30:36.814Z,30.48
2022-08-09T12:32:52.937Z,30.04
2022-08-09T12:35:21.902Z,30.40
2022-08-09T12:37:51.734Z,30.49
2022-08-09T12:40:19.246Z,30.03
2022-08-09T12:42:45.822Z,30.34
2022-08-09T12:45:34.787Z,30.42
2022-08-09T12:47:59.279Z,29.60
2022-08-09T12:50:34.658Z,29.30
2022-08-09T12:53:08.908Z,29.43
2022-08-09T12:56:12.894Z,29.00
2022-08-09T12:58:31.719Z,29.07
2022-08-09T13:00:58.619Z,29.38
2022-08-09T13:03:54.009Z,28.67
2022-08-09T13:06:16.035Z,28.18
2022-08-09T13:08:43.589Z,28.57
2022-08-09T13:11:25.058Z,28.22
2022-08-09T13:14:36.825Z,28.24
2022-08-09T13:16:39.389Z,27.99
2022-08-09T13:19:11.569Z,28.08
2022-08-09T13:22:36.028Z,27.76
2022-08-09T13:24:54.227Z,28.36
2022-08-09T13:27:12.697Z,28.02
2022-08-09T13:30:02.622Z,27.41
2022-08-09T13:32:28.970Z,27.55
2022-08-09T13:34:55.866Z,27.83
2022-08-09T13:37:51.763Z,27.41
2022-08-09T13:41:52.042Z,27.28
2022-08-09T13:43:03.430Z,27.57
2022-08-09T13:45:32.336Z,27.35
2022-08-09T13:48:18.158Z,27.43
2022-08-09T13:50:44.732Z,27.05
2022-08-09T13:53:16.130Z,27.10
2022-08-09T13:55:44.764Z,27.25
2022-08-09T13:58:14.376Z,27.24
2022-08-09T14:00:49.928Z,24.28
2022-08-09T14:04:05.033Z,24.22
2022-08-09T14:06:19.541Z,23.46
2022-08-09T14:08:53.028Z,22.97
2022-08-09T14:11:19.850Z,22.80
2022-08-09T14:14:23.004Z,23.55
2022-08-09T14:16:35.605Z,23.16
2022-08-09T14:19:06.570Z,23.55
2022-08-09T14:21:33.596Z,23.18
2022-08-09T14:24:10.297Z,23.36
2022-08-09T14:26:45.580Z,22.75
2022-08-09T14:30:04.440Z,22.69
2022-08-09T14:32:11.045Z,22.30
2022-08-09T14:34:41.043Z,21.58
2022-08-09T14:37:09.207Z,22.47
2022-08-09T14:39:45.444Z,23.40
2022-08-09T14:42:30.424Z,23.28
2022-08-09T14:45:01.261Z,23.48
2022-08-09T14:47:44.836Z,23.81
2022-08-09T14:50:16.196Z,23.00
2022-08-09T14:52:43.884Z,23.31
2022-08-09T14:55:20.366Z,23.69
2022-08-09T14:57:47.878Z,23.83
2022-08-09T15:00:15.721Z,23.39
2022-08-09T15:02:42.306Z,24.03
2022-08-09T15:05:10.905Z,24.06
2022-08-09T15:07:43.679Z,23.70
2022-08-09T15:10:14.119Z,23.25
2022-08-09T15:12:44.876Z,22.81
2022-08-09T15:15:12.857Z,22.17
2022-08-09T15:17:42.101Z,22.86
2022-08-09T15:21:53.419Z,22.09
2022-08-09T15:23:02.879Z,22.63
2022-08-09T15:25:45.902Z,22.68
2022-08-09T15:28:26.077Z,22.03
2022-08-09T15:31:00.632Z,21.91
2022-08-09T15:34:17.738Z,21.41
2022-08-09T15:36:16.806Z,19.62
2022-08-09T15:38:43.357Z,20.65
2022-08-09T15:41:10.266Z,20.48
2022-08-09T15:43:37.906Z,19.60
2022-08-09T15:46:28.732Z,20.31
2022-08-09T15:49:21.109Z,20.52
2022-08-09T15:52:02.109Z,20.20
2022-08-09T15:54:33.376Z,20.25
2022-08-09T15:57:09.408Z,19.70
2022-08-09T15:59:36.981Z,19.57
2022-08-09T16:02:04.071Z,19.53
2022-08-09T16:04:32.430Z,19.22
2022-08-09T16:07:01.882Z,19.71
2022-08-09T16:09:32.430Z,19.91
2022-08-09T16:12:16.157Z,19.64
2022-08-09T16:14:42.782Z,19.56
2022-08-09T16:17:12.743Z,19.90
2022-08-09T16:19:49.415Z,20.30
2022-08-09T16:22:30.587Z,20.49
2022-08-09T16:24:57.242Z,20.31
2022-08-09T16:27:27.030Z,20.60
2022-08-09T16:30:00.794Z,20.42
2022-08-09T16:32:35.142Z,20.27
2022-08-09T16:35:02.380Z,19.94
2022-08-09T16:37:53.769Z,20.64
2022-08-09T16:40:29.866Z,20.51
2022-08-09T16:43:04.592Z,19.97
2022-08-09T16:45:31.930Z,19.96
2022-08-09T16:48:38.091Z,20.82
2022-08-09T16:50:59.445Z,20.98
2022-08-09T16:53:34.550Z,21.10
2022-08-09T16:56:05.959Z,20.91
2022-08-09T16:58:36.759Z,20.76
2022-08-09T17:01:03.671Z,20.92
2022-08-09T17:03:30.460Z,20.59
2022-08-09T17:06:07.111Z,21.32
2022-08-09T17:08:43.523Z,22.07
2022-08-09T17:11:24.676Z,22.33
2022-08-09T17:14:08.237Z,21.85
2022-08-09T17:16:52.033Z,22.22
2022-08-09T17:19:18.725Z,22.83
2022-08-09T17:21:47.783Z,23.29
2022-08-09T17:24:30.570Z,23.45
2022-08-09T17:26:57.458Z,23.74
2022-08-09T17:29:24.931Z,23.54
2022-08-09T17:31:59.299Z,23.63
2022-08-09T17:35:01.011Z,23.99
2022-08-09T17:37:19.711Z,24.40
2022-08-09T17:39:53.267Z,24.99
2022-08-09T17:42:51.349Z,25.56
2022-08-09T17:45:27.442Z,25.88
2022-08-09T17:47:54.857Z,25.59
2022-08-09T17:50:25.161Z,25.47
2022-08-09T17:53:04.745Z,25.94
2022-08-09T17:55:49.726Z,25.92
2022-08-09T17:58:18.351Z,26.19
2022-08-09T18:00:48.368Z,25.98
2022-08-09T18:03:17.886Z,26.18
2022-08-09T18:05:45.125Z,26.47
2022-08-09T18:08:22.045Z,26.28
2022-08-09T18:11:00.776Z,26.19
2022-08-09T18:13:43.094Z,25.96
2022-08-09T18:16:16.648Z,26.16
2022-08-09T18:18:49.130Z,25.87
2022-08-09T18:21:22.831Z,26.08
2022-08-09T18:24:12.835Z,26.05
2022-08-09T18:26:38.437Z,26.21
2022-08-09T18:30:42.605Z,25.65
2022-08-09T18:32:00.180Z,25.72
2022-08-09T18:34:26.766Z,26.01
2022-08-09T18:36:53.651Z,26.13
2022-08-09T18:39:20.560Z,25.97
2022-08-09T18:41:53.177Z,25.43
2022-08-09T18:44:20.205Z,24.93
2022-08-09T18:47:07.922Z,25.41
2022-08-09T18:49:43.139Z,25.36
2022-08-09T18:52:13.208Z,25.20
2022-08-09T18:54:49.655Z,24.92
2022-08-09T18:57:22.116Z,25.23
2022-08-09T18:59:52.016Z,25.26
2022-08-09T19:02:30.529Z,25.14
2022-08-09T19:05:14.672Z,25.45
2022-08-09T19:08:04.894Z,24.94
2022-08-09T19:10:37.632Z,25.63
2022-08-09T19:13:20.838Z,25.70
2022-08-09T19:15:51.223Z,25.75
2022-08-09T19:18:33.292Z,26.11
2022-08-09T19:21:05.433Z,26.32
2022-08-09T19:24:32.014Z,25.88
2022-08-09T19:26:29.069Z,26.16
2022-08-09T19:29:01.616Z,26.48
2022-08-09T19:31:28.797Z,26.33
2022-08-09T19:33:58.228Z,26.54
2022-08-09T19:36:30.768Z,26.86
2022-08-09T19:38:59.446Z,27.23
2022-08-09T19:41:33.378Z,27.06
2022-08-09T19:44:03.157Z,27.34
2022-08-09T19:46:35.083Z,27.19
2022-08-09T19:50:05.344Z,27.15
2022-08-09T19:51:55.707Z,27.39
2022-08-09T19:54:23.510Z,27.20
2022-08-09T19:56:51.692Z,27.09
2022-08-09T19:59:57.701Z,27.32
2022-08-09T20:02:18.221Z,26.90
2022-08-09T20:04:55.325Z,26.81
2022-08-09T20:07:24.211Z,27.53
2022-08-09T20:09:51.071Z,27.10
2022-08-09T20:12:30.223Z,27.82
2022-08-09T20:15:04.749Z,27.92
2022-08-09T20:17:54.140Z,28.13
2022-08-09T20:20:22.122Z,28.16
2022-08-09T20:22:51.191Z,28.16
2022-08-09T20:25:23.613Z,27.78
2022-08-09T20:27:50.133Z,28.34
2022-08-09T20:30:17.895Z,28.58
2022-08-09T20:32:48.526Z,28.68
2022-08-09T20:35:19.357Z,28.37
2022-08-09T20:38:22.425Z,28.69
2022-08-09T20:40:32.497Z,28.54
2022-08-09T20:43:18.445Z,28.72
2022-08-09T20:46:01.974Z,28.96
2022-08-09T20:48:32.780Z,29.26
2022-08-09T20:51:00.781Z,29.44
2022-08-09T20:53:36.460Z,29.77
2022-08-09T20:56:04.494Z,29.51
2022-08-09T20:58:32.712Z,29.79
2022-08-09T21:01:14.368Z,30.50
2022-08-09T21:05:48.879Z,29.81
2022-08-09T21:06:33.781Z,30.10
2022-08-09T21:09:02.034Z,30.68
2022-08-09T21:14:16.689Z,30.15
2022-08-09T21:16:44.159Z,30.37
2022-08-09T21:20:18.551Z,30.62
2022-08-09T21:22:02.809Z,30.89
2022-08-09T21:24:32.484Z,30.62
2022-08-09T21:26:59.353Z,30.80
2022-08-09T21:29:26.138Z,31.12
2022-08-09T21:31:53.109Z,30.78
2022-08-09T21:34:29.525Z,31.02
2022-08-09T21:36:56.485Z,31.03
2022-08-09T21:39:27.741Z,31.56
2022-08-09T21:42:04.668Z,31.50
2022-08-09T21:44:37.172Z,31.50
2022-08-09T21:47:04.501Z,31.74
2022-08-09T21:49:40.054Z,31.85
2022-08-09T21:52:17.161Z,31.41
2022-08-09T21:54:46.135Z,31.85
2022-08-09T21:57:37.034Z,31.60
2022-08-09T22:00:02.075Z,31.84
2022-08-09T22:02:36.526Z,31.89
2022-08-09T22:05:16.933Z,31.65
2022-08-09T22:07:52.191Z,31.58
2022-08-09T22:10:23.177Z,31.57
2022-08-09T22:12:50.959Z,31.75
2022-08-09T22:15:18.747Z,31.97
2022-08-09T22:17:49.804Z,31.74
2022-08-09T22:20:17.033Z,31.15
2022-08-09T22:22:48.833Z,31.50
2022-08-09T22:26:06.103Z,31.42
2022-08-09T22:28:07.653Z,30.11
2022-08-09T22:30:34.485Z,30.19
2022-08-09T22:33:03.125Z,30.30
2022-08-09T22:36:01.219Z,29.89
2022-08-09T22:38:22.844Z,29.78
2022-08-09T22:40:58.122Z,28.98
2022-08-09T22:44:02.605Z,29.36
2022-08-09T22:48:11.136Z,28.63
2022-08-09T22:48:59.934Z,28.65
2022-08-09T22:51:28.610Z,28.51
2022-08-09T22:54:02.230Z,28.05
2022-08-09T22:56:34.380Z,27.77
2022-08-09T22:59:01.185Z,27.31
2022-08-09T23:01:32.923Z,27.25
2022-08-09T23:04:05.133Z,27.19
2022-08-09T23:06:36.122Z,27.54
2022-08-09T23:09:02.957Z,27.78
2022-08-09T23:11:29.493Z,27.57
2022-08-09T23:13:56.070Z,27.53
2022-08-09T23:16:22.804Z,27.38
2022-08-09T23:18:49.368Z,27.33
2022-08-09T23:21:25.166Z,27.10
2022-08-09T23:24:01.632Z,27.26
2022-08-09T23:26:32.386Z,27.14
2022-08-09T23:28:59.222Z,27.40
2022-08-09T23:31:26.051Z,27.34
2022-08-09T23:33:53.276Z,27.56
2022-08-09T23:36:19.947Z,27.63
2022-08-09T23:38:48.927Z,27.97
2022-08-09T23:41:28.627Z,28.38
2022-08-09T23:43:56.286Z,28.27
2022-08-09T23:46:22.815Z,27.80
2022-08-09T23:48:49.570Z,27.88
2022-08-09T23:51:18.549Z,27.96
2022-08-09T23:53:45.161Z,27.78
2022-08-09T23:56:13.953Z,27.75
2022-08-09T23:58:41.229Z,27.93
